sensor_id;sensor_type;location;lat;lon;timestamp;pressure;altitude;pressure_sealevel;temperature;humidity
68376;BME280;55318;52.068;5.188;2023-05-07T00:00:57;101680.0;;;16.05;100.0
68376;BME280;55318;52.068;5.188;2023-05-07T00:04:10;101675.0;;;16.11;100.0
68376;BME280;55318;52.068;5.188;2023-05-07T00:05:46;101680.0;;;16.27;100.0
68376;BME280;55318;52.068;5.188;2023-05-07T00:07:23;101683.0;;;16.39;99.46
68376;BME280;55318;52.068;5.188;2023-05-07T00:10:35;101681.0;;;16.34;99.73
68376;BME280;55318;52.068;5.188;2023-05-07T00:12:11;101682.0;;;16.36;99.8
68376;BME280;55318;52.068;5.188;2023-05-07T00:13:48;101683.0;;;16.43;99.23
68376;BME280;55318;52.068;5.188;2023-05-07T00:15:24;101681.0;;;16.34;99.71
68376;BME280;55318;52.068;5.188;2023-05-07T00:18:39;101681.0;;;16.43;99.15
68376;BME280;55318;52.068;5.188;2023-05-07T00:20:15;101680.0;;;16.38;99.28
68376;BME280;55318;52.068;5.188;2023-05-07T00:21:51;101680.0;;;16.43;99.12
68376;BME280;55318;52.068;5.188;2023-05-07T00:25:04;101677.0;;;16.41;99.05
68376;BME280;55318;52.068;5.188;2023-05-07T00:26:40;101677.0;;;16.37;99.43
68376;BME280;55318;52.068;5.188;2023-05-07T00:28:18;101674.0;;;16.34;99.38
68376;BME280;55318;52.068;5.188;2023-05-07T00:31:32;101674.0;;;16.39;99.49
68376;BME280;55318;52.068;5.188;2023-05-07T00:33:08;101678.0;;;16.34;99.57
68376;BME280;55318;52.068;5.188;2023-05-07T00:34:44;101676.0;;;16.32;99.35
68376;BME280;55318;52.068;5.188;2023-05-07T00:36:21;101669.0;;;16.46;98.62
68376;BME280;55318;52.068;5.188;2023-05-07T00:39:35;101665.0;;;16.4;98.83
68376;BME280;55318;52.068;5.188;2023-05-07T00:41:11;101668.0;;;16.52;97.79
68376;BME280;55318;52.068;5.188;2023-05-07T00:42:48;101669.0;;;16.34;99.2
68376;BME280;55318;52.068;5.188;2023-05-07T00:46:00;101669.0;;;16.31;99.02
68376;BME280;55318;52.068;5.188;2023-05-07T00:47:37;101662.0;;;16.4;98.54
68376;BME280;55318;52.068;5.188;2023-05-07T00:49:14;101669.0;;;16.46;98.28
68376;BME280;55318;52.068;5.188;2023-05-07T00:52:29;101669.0;;;16.4;98.3
68376;BME280;55318;52.068;5.188;2023-05-07T00:54:06;101667.0;;;16.45;98.01
68376;BME280;55318;52.068;5.188;2023-05-07T00:55:43;101667.0;;;16.39;98.68
68376;BME280;55318;52.068;5.188;2023-05-07T00:57:20;101663.0;;;16.37;98.69
68376;BME280;55318;52.068;5.188;2023-05-07T01:00:33;101661.0;;;16.46;97.46
68376;BME280;55318;52.068;5.188;2023-05-07T01:02:10;101662.0;;;16.48;97.18
68376;BME280;55318;52.068;5.188;2023-05-07T01:03:46;101660.0;;;16.5;97.44
68376;BME280;55318;52.068;5.188;2023-05-07T01:07:02;101664.0;;;16.39;98.14
68376;BME280;55318;52.068;5.188;2023-05-07T01:08:39;101658.0;;;16.56;96.62
68376;BME280;55318;52.068;5.188;2023-05-07T01:10:17;101668.0;;;16.36;98.0
68376;BME280;55318;52.068;5.188;2023-05-07T01:11:55;101663.0;;;16.2;99.97
68376;BME280;55318;52.068;5.188;2023-05-07T01:15:11;101662.0;;;16.23;99.83
68376;BME280;55318;52.068;5.188;2023-05-07T01:16:48;101662.0;;;16.16;100.0
68376;BME280;55318;52.068;5.188;2023-05-07T01:18:25;101663.0;;;16.12;100.0
68376;BME280;55318;52.068;5.188;2023-05-07T01:21:45;101664.0;;;16.25;99.58
68376;BME280;55318;52.068;5.188;2023-05-07T01:23:22;101668.0;;;16.34;98.73
68376;BME280;55318;52.068;5.188;2023-05-07T01:25:00;101663.0;;;16.16;100.0
68376;BME280;55318;52.068;5.188;2023-05-07T01:26:36;101665.0;;;16.12;100.0
68376;BME280;55318;52.068;5.188;2023-05-07T01:29:50;101670.0;;;16.16;100.0
68376;BME280;55318;52.068;5.188;2023-05-07T01:31:26;101665.0;;;16.25;100.0
68376;BME280;55318;52.068;5.188;2023-05-07T01:33:04;101663.0;;;16.09;100.0
68376;BME280;55318;52.068;5.188;2023-05-07T01:36:25;101666.0;;;16.15;100.0
68376;BME280;55318;52.068;5.188;2023-05-07T01:38:03;101668.0;;;16.11;100.0
68376;BME280;55318;52.068;5.188;2023-05-07T01:41:16;101670.0;;;16.04;100.0
68376;BME280;55318;52.068;5.188;2023-05-07T01:44:30;101668.0;;;15.97;100.0
68376;BME280;55318;52.068;5.188;2023-05-07T01:46:06;101669.0;;;16.02;100.0
68376;BME280;55318;52.068;5.188;2023-05-07T01:47:44;101663.0;;;16.03;100.0
68376;BME280;55318;52.068;5.188;2023-05-07T01:50:56;101660.0;;;16.03;100.0
68376;BME280;55318;52.068;5.188;2023-05-07T01:52:34;101660.0;;;15.99;100.0
68376;BME280;55318;52.068;5.188;2023-05-07T01:54:12;101660.0;;;16.12;100.0
68376;BME280;55318;52.068;5.188;2023-05-07T01:55:48;101662.0;;;16.2;100.0
68376;BME280;55318;52.068;5.188;2023-05-07T01:59:00;101661.0;;;16.3;100.0
68376;BME280;55318;52.068;5.188;2023-05-07T02:00:36;101660.0;;;16.36;100.0
68376;BME280;55318;52.068;5.188;2023-05-07T02:02:13;101650.0;;;16.45;100.0
68376;BME280;55318;52.068;5.188;2023-05-07T02:05:26;101648.0;;;16.23;100.0
68376;BME280;55318;52.068;5.188;2023-05-07T02:07:02;101653.0;;;16.14;100.0
68376;BME280;55318;52.068;5.188;2023-05-07T02:08:38;101653.0;;;16.27;100.0
68376;BME280;55318;52.068;5.188;2023-05-07T02:11:50;101647.0;;;16.09;100.0
68376;BME280;55318;52.068;5.188;2023-05-07T02:13:29;101653.0;;;16.31;100.0
68376;BME280;55318;52.068;5.188;2023-05-07T02:15:06;101646.0;;;16.22;100.0
68376;BME280;55318;52.068;5.188;2023-05-07T02:16:42;101642.0;;;16.32;100.0
68376;BME280;55318;52.068;5.188;2023-05-07T02:19:55;101641.0;;;16.32;100.0
68376;BME280;55318;52.068;5.188;2023-05-07T02:21:31;101640.0;;;16.16;100.0
68376;BME280;55318;52.068;5.188;2023-05-07T02:23:07;101638.0;;;16.18;100.0
68376;BME280;55318;52.068;5.188;2023-05-07T02:26:20;101637.0;;;16.39;99.7
68376;BME280;55318;52.068;5.188;2023-05-07T02:27:56;101640.0;;;16.22;100.0
68376;BME280;55318;52.068;5.188;2023-05-07T02:29:32;101642.0;;;16.12;100.0
68376;BME280;55318;52.068;5.188;2023-05-07T02:32:45;101645.0;;;16.29;100.0
68376;BME280;55318;52.068;5.188;2023-05-07T02:34:21;101645.0;;;16.2;100.0
68376;BME280;55318;52.068;5.188;2023-05-07T02:36:05;101651.0;;;16.34;99.12
68376;BME280;55318;52.068;5.188;2023-05-07T02:37:41;101653.0;;;16.31;98.99
68376;BME280;55318;52.068;5.188;2023-05-07T02:40:53;101652.0;;;16.32;98.79
68376;BME280;55318;52.068;5.188;2023-05-07T02:42:31;101649.0;;;16.14;100.0
68376;BME280;55318;52.068;5.188;2023-05-07T02:44:07;101655.0;;;16.05;100.0
68376;BME280;55318;52.068;5.188;2023-05-07T02:47:20;101655.0;;;16.05;100.0
68376;BME280;55318;52.068;5.188;2023-05-07T02:48:56;101653.0;;;16.09;100.0
68376;BME280;55318;52.068;5.188;2023-05-07T02:50:32;101649.0;;;16.02;100.0
68376;BME280;55318;52.068;5.188;2023-05-07T02:55:21;101655.0;;;15.87;100.0
68376;BME280;55318;52.068;5.188;2023-05-07T02:56:57;101649.0;;;15.87;100.0
68376;BME280;55318;52.068;5.188;2023-05-07T02:58:33;101642.0;;;15.82;100.0
68376;BME280;55318;52.068;5.188;2023-05-07T03:01:48;101644.0;;;15.73;100.0
68376;BME280;55318;52.068;5.188;2023-05-07T03:03:24;101641.0;;;15.77;100.0
68376;BME280;55318;52.068;5.188;2023-05-07T03:05:00;101641.0;;;15.67;100.0
68376;BME280;55318;52.068;5.188;2023-05-07T03:08:12;101640.0;;;15.68;100.0
68376;BME280;55318;52.068;5.188;2023-05-07T03:09:48;101639.0;;;15.63;100.0
68376;BME280;55318;52.068;5.188;2023-05-07T03:11:24;101637.0;;;15.72;100.0
68376;BME280;55318;52.068;5.188;2023-05-07T03:14:38;101641.0;;;15.63;100.0
68376;BME280;55318;52.068;5.188;2023-05-07T03:16:14;101644.0;;;15.57;100.0
68376;BME280;55318;52.068;5.188;2023-05-07T03:17:51;101638.0;;;15.49;100.0
68376;BME280;55318;52.068;5.188;2023-05-07T03:19:27;101638.0;;;15.53;100.0
68376;BME280;55318;52.068;5.188;2023-05-07T03:22:40;101641.0;;;15.44;100.0
68376;BME280;55318;52.068;5.188;2023-05-07T03:24:16;101637.0;;;15.32;100.0
68376;BME280;55318;52.068;5.188;2023-05-07T03:25:53;101636.0;;;15.41;100.0
68376;BME280;55318;52.068;5.188;2023-05-07T03:29:05;101640.0;;;15.39;100.0
68376;BME280;55318;52.068;5.188;2023-05-07T03:30:41;101639.0;;;15.27;100.0
68376;BME280;55318;52.068;5.188;2023-05-07T03:32:17;101635.0;;;15.28;100.0
68376;BME280;55318;52.068;5.188;2023-05-07T03:35:31;101637.0;;;15.24;100.0
68376;BME280;55318;52.068;5.188;2023-05-07T03:37:09;101634.0;;;15.19;100.0
68376;BME280;55318;52.068;5.188;2023-05-07T03:38:45;101634.0;;;15.1;100.0
68376;BME280;55318;52.068;5.188;2023-05-07T03:41:57;101637.0;;;15.11;100.0
68376;BME280;55318;52.068;5.188;2023-05-07T03:43:34;101636.0;;;15.06;100.0
68376;BME280;55318;52.068;5.188;2023-05-07T03:45:11;101635.0;;;15.02;100.0
68376;BME280;55318;52.068;5.188;2023-05-07T03:46:47;101638.0;;;14.98;100.0
68376;BME280;55318;52.068;5.188;2023-05-07T03:49:59;101633.0;;;14.97;100.0
68376;BME280;55318;52.068;5.188;2023-05-07T03:51:35;101631.0;;;14.93;100.0
68376;BME280;55318;52.068;5.188;2023-05-07T03:53:12;101633.0;;;14.93;100.0
68376;BME280;55318;52.068;5.188;2023-05-07T03:56:24;101634.0;;;14.95;100.0
68376;BME280;55318;52.068;5.188;2023-05-07T03:58:00;101632.0;;;14.92;100.0
68376;BME280;55318;52.068;5.188;2023-05-07T03:59:37;101634.0;;;14.96;100.0
68376;BME280;55318;52.068;5.188;2023-05-07T04:02:49;101641.0;;;14.95;100.0
68376;BME280;55318;52.068;5.188;2023-05-07T04:04:25;101639.0;;;14.99;100.0
68376;BME280;55318;52.068;5.188;2023-05-07T04:06:01;101645.0;;;15.0;100.0
68376;BME280;55318;52.068;5.188;2023-05-07T04:07:38;101644.0;;;15.05;100.0
68376;BME280;55318;52.068;5.188;2023-05-07T04:10:54;101649.0;;;15.1;100.0
68376;BME280;55318;52.068;5.188;2023-05-07T04:12:31;101648.0;;;15.1;100.0
68376;BME280;55318;52.068;5.188;2023-05-07T04:14:07;101648.0;;;15.07;100.0
68376;BME280;55318;52.068;5.188;2023-05-07T04:17:19;101652.0;;;15.09;100.0
68376;BME280;55318;52.068;5.188;2023-05-07T04:18:55;101652.0;;;15.08;100.0
68376;BME280;55318;52.068;5.188;2023-05-07T04:20:33;101652.0;;;15.19;100.0
68376;BME280;55318;52.068;5.188;2023-05-07T04:23:48;101655.0;;;15.16;100.0
68376;BME280;55318;52.068;5.188;2023-05-07T04:25:25;101653.0;;;15.16;100.0
68376;BME280;55318;52.068;5.188;2023-05-07T04:27:01;101656.0;;;15.18;100.0
68376;BME280;55318;52.068;5.188;2023-05-07T04:28:38;101660.0;;;15.22;100.0
68376;BME280;55318;52.068;5.188;2023-05-07T04:31:50;101658.0;;;15.24;100.0
68376;BME280;55318;52.068;5.188;2023-05-07T04:33:26;101655.0;;;15.32;100.0
68376;BME280;55318;52.068;5.188;2023-05-07T04:35:03;101658.0;;;15.29;100.0
68376;BME280;55318;52.068;5.188;2023-05-07T04:38:17;101658.0;;;15.31;100.0
68376;BME280;55318;52.068;5.188;2023-05-07T04:39:53;101661.0;;;15.32;100.0
68376;BME280;55318;52.068;5.188;2023-05-07T04:41:29;101660.0;;;15.37;100.0
68376;BME280;55318;52.068;5.188;2023-05-07T04:44:41;101664.0;;;15.52;100.0
68376;BME280;55318;52.068;5.188;2023-05-07T04:46:19;101661.0;;;15.56;100.0
68376;BME280;55318;52.068;5.188;2023-05-07T04:47:56;101663.0;;;15.65;100.0
68376;BME280;55318;52.068;5.188;2023-05-07T04:49:32;101661.0;;;15.65;100.0
68376;BME280;55318;52.068;5.188;2023-05-07T04:52:44;101660.0;;;15.56;100.0
68376;BME280;55318;52.068;5.188;2023-05-07T04:54:20;101659.0;;;15.55;100.0
68376;BME280;55318;52.068;5.188;2023-05-07T04:55:57;101659.0;;;15.51;100.0
68376;BME280;55318;52.068;5.188;2023-05-07T04:59:10;101661.0;;;15.56;100.0
68376;BME280;55318;52.068;5.188;2023-05-07T05:00:46;101662.0;;;15.54;100.0
68376;BME280;55318;52.068;5.188;2023-05-07T05:02:22;101665.0;;;15.5;100.0
68376;BME280;55318;52.068;5.188;2023-05-07T05:05:34;101664.0;;;15.56;100.0
68376;BME280;55318;52.068;5.188;2023-05-07T05:07:10;101671.0;;;15.65;100.0
68376;BME280;55318;52.068;5.188;2023-05-07T05:08:46;101667.0;;;15.63;100.0
68376;BME280;55318;52.068;5.188;2023-05-07T05:10:22;101667.0;;;15.72;100.0
68376;BME280;55318;52.068;5.188;2023-05-07T05:13:35;101673.0;;;15.75;100.0
68376;BME280;55318;52.068;5.188;2023-05-07T05:15:11;101676.0;;;15.8;100.0
68376;BME280;55318;52.068;5.188;2023-05-07T05:16:48;101672.0;;;15.73;100.0
68376;BME280;55318;52.068;5.188;2023-05-07T05:20:00;101678.0;;;15.76;100.0
68376;BME280;55318;52.068;5.188;2023-05-07T05:21:36;101680.0;;;15.84;100.0
68376;BME280;55318;52.068;5.188;2023-05-07T05:23:13;101686.0;;;15.89;100.0
68376;BME280;55318;52.068;5.188;2023-05-07T05:26:25;101694.0;;;15.95;100.0
68376;BME280;55318;52.068;5.188;2023-05-07T05:28:01;101692.0;;;15.89;100.0
68376;BME280;55318;52.068;5.188;2023-05-07T05:29:37;101692.0;;;15.99;100.0
68376;BME280;55318;52.068;5.188;2023-05-07T05:32:50;101694.0;;;16.06;100.0
68376;BME280;55318;52.068;5.188;2023-05-07T05:34:26;101692.0;;;15.87;100.0
68376;BME280;55318;52.068;5.188;2023-05-07T05:36:02;101691.0;;;15.76;100.0
68376;BME280;55318;52.068;5.188;2023-05-07T05:37:39;101693.0;;;15.76;100.0
68376;BME280;55318;52.068;5.188;2023-05-07T05:40:53;101695.0;;;15.9;100.0
68376;BME280;55318;52.068;5.188;2023-05-07T05:42:29;101698.0;;;15.89;100.0
68376;BME280;55318;52.068;5.188;2023-05-07T05:44:06;101698.0;;;15.84;100.0
68376;BME280;55318;52.068;5.188;2023-05-07T05:47:18;101699.0;;;15.79;100.0
68376;BME280;55318;52.068;5.188;2023-05-07T05:48:54;101702.0;;;15.72;100.0
68376;BME280;55318;52.068;5.188;2023-05-07T05:50:30;101706.0;;;15.85;100.0
68376;BME280;55318;52.068;5.188;2023-05-07T05:53:43;101714.0;;;16.07;100.0
68376;BME280;55318;52.068;5.188;2023-05-07T05:55:19;101712.0;;;16.02;100.0
68376;BME280;55318;52.068;5.188;2023-05-07T05:56:56;101715.0;;;16.03;100.0
68376;BME280;55318;52.068;5.188;2023-05-07T05:58:33;101711.0;;;16.06;100.0
68376;BME280;55318;52.068;5.188;2023-05-07T06:01:46;101707.0;;;15.97;100.0
68376;BME280;55318;52.068;5.188;2023-05-07T06:03:22;101710.0;;;15.84;100.0
68376;BME280;55318;52.068;5.188;2023-05-07T06:04:58;101710.0;;;15.88;100.0
68376;BME280;55318;52.068;5.188;2023-05-07T06:08:11;101711.0;;;15.98;100.0
68376;BME280;55318;52.068;5.188;2023-05-07T06:09:47;101712.0;;;15.9;100.0
68376;BME280;55318;52.068;5.188;2023-05-07T06:11:23;101715.0;;;16.0;100.0
68376;BME280;55318;52.068;5.188;2023-05-07T06:14:35;101721.0;;;16.11;100.0
68376;BME280;55318;52.068;5.188;2023-05-07T06:16:11;101717.0;;;16.09;100.0
68376;BME280;55318;52.068;5.188;2023-05-07T06:17:48;101721.0;;;16.18;100.0
68376;BME280;55318;52.068;5.188;2023-05-07T06:19:25;101725.0;;;16.2;100.0
68376;BME280;55318;52.068;5.188;2023-05-07T06:22:38;101731.0;;;16.27;100.0
68376;BME280;55318;52.068;5.188;2023-05-07T06:24:14;101719.0;;;16.4;100.0
68376;BME280;55318;52.068;5.188;2023-05-07T06:25:51;101726.0;;;16.45;100.0
68376;BME280;55318;52.068;5.188;2023-05-07T06:29:04;101721.0;;;16.47;100.0
68376;BME280;55318;52.068;5.188;2023-05-07T06:30:40;101723.0;;;16.59;100.0
68376;BME280;55318;52.068;5.188;2023-05-07T06:32:18;101724.0;;;16.59;100.0
68376;BME280;55318;52.068;5.188;2023-05-07T06:35:31;101726.0;;;16.75;100.0
68376;BME280;55318;52.068;5.188;2023-05-07T06:37:07;101728.0;;;16.68;100.0
68376;BME280;55318;52.068;5.188;2023-05-07T06:38:43;101731.0;;;16.62;100.0
68376;BME280;55318;52.068;5.188;2023-05-07T06:40:19;101735.0;;;16.57;100.0
68376;BME280;55318;52.068;5.188;2023-05-07T06:43:32;101735.0;;;16.62;100.0
68376;BME280;55318;52.068;5.188;2023-05-07T06:45:09;101731.0;;;16.55;100.0
68376;BME280;55318;52.068;5.188;2023-05-07T06:46:45;101738.0;;;16.48;100.0
68376;BME280;55318;52.068;5.188;2023-05-07T06:49:58;101737.0;;;16.54;100.0
68376;BME280;55318;52.068;5.188;2023-05-07T06:51:34;101738.0;;;16.41;100.0
68376;BME280;55318;52.068;5.188;2023-05-07T06:53:10;101742.0;;;16.3;100.0
68376;BME280;55318;52.068;5.188;2023-05-07T06:56:22;101744.0;;;16.43;100.0
68376;BME280;55318;52.068;5.188;2023-05-07T06:57:58;101748.0;;;16.39;100.0
68376;BME280;55318;52.068;5.188;2023-05-07T06:59:36;101745.0;;;16.59;100.0
68376;BME280;55318;52.068;5.188;2023-05-07T07:02:48;101747.0;;;16.57;100.0
68376;BME280;55318;52.068;5.188;2023-05-07T07:04:24;101743.0;;;16.77;100.0
68376;BME280;55318;52.068;5.188;2023-05-07T07:06:01;101741.0;;;16.63;100.0
68376;BME280;55318;52.068;5.188;2023-05-07T07:07:36;101744.0;;;16.62;100.0
68376;BME280;55318;52.068;5.188;2023-05-07T07:10:49;101745.0;;;16.82;100.0
68376;BME280;55318;52.068;5.188;2023-05-07T07:12:25;101748.0;;;16.84;98.68
68376;BME280;55318;52.068;5.188;2023-05-07T07:14:01;101749.0;;;16.82;99.59
68376;BME280;55318;52.068;5.188;2023-05-07T07:17:13;101745.0;;;16.75;100.0
68376;BME280;55318;52.068;5.188;2023-05-07T07:18:50;101745.0;;;16.73;100.0
68376;BME280;55318;52.068;5.188;2023-05-07T07:20:27;101749.0;;;16.81;100.0
68376;BME280;55318;52.068;5.188;2023-05-07T07:23:39;101748.0;;;16.9;99.78
68376;BME280;55318;52.068;5.188;2023-05-07T07:25:15;101746.0;;;16.84;100.0
68376;BME280;55318;52.068;5.188;2023-05-07T07:26:52;101743.0;;;16.9;100.0
68376;BME280;55318;52.068;5.188;2023-05-07T07:28:28;101739.0;;;17.04;99.68
68376;BME280;55318;52.068;5.188;2023-05-07T07:31:43;101734.0;;;17.06;98.86
68376;BME280;55318;52.068;5.188;2023-05-07T07:33:19;101735.0;;;17.02;98.98
68376;BME280;55318;52.068;5.188;2023-05-07T07:34:55;101736.0;;;17.09;99.13
68376;BME280;55318;52.068;5.188;2023-05-07T07:38:07;101740.0;;;17.16;98.12
68376;BME280;55318;52.068;5.188;2023-05-07T07:39:43;101737.0;;;17.18;99.56
68376;BME280;55318;52.068;5.188;2023-05-07T07:41:20;101740.0;;;17.16;97.68
68376;BME280;55318;52.068;5.188;2023-05-07T07:44:33;101747.0;;;17.31;98.85
68376;BME280;55318;52.068;5.188;2023-05-07T07:46:10;101746.0;;;17.39;98.44
68376;BME280;55318;52.068;5.188;2023-05-07T07:47:48;101750.0;;;17.52;97.25
68376;BME280;55318;52.068;5.188;2023-05-07T07:49:24;101755.0;;;17.59;96.66
68376;BME280;55318;52.068;5.188;2023-05-07T07:52:37;101752.0;;;17.61;97.78
68376;BME280;55318;52.068;5.188;2023-05-07T07:54:14;101752.0;;;17.59;97.92
68376;BME280;55318;52.068;5.188;2023-05-07T07:55:50;101757.0;;;17.57;96.56
68376;BME280;55318;52.068;5.188;2023-05-07T07:59:03;101749.0;;;17.75;97.04
68376;BME280;55318;52.068;5.188;2023-05-07T08:00:39;101747.0;;;17.66;95.51
68376;BME280;55318;52.068;5.188;2023-05-07T08:02:15;101747.0;;;17.61;97.47
68376;BME280;55318;52.068;5.188;2023-05-07T08:05:29;101748.0;;;17.73;96.04
68376;BME280;55318;52.068;5.188;2023-05-07T08:07:06;101751.0;;;17.68;96.29
68376;BME280;55318;52.068;5.188;2023-05-07T08:08:42;101750.0;;;17.68;95.19
68376;BME280;55318;52.068;5.188;2023-05-07T08:10:19;101747.0;;;17.77;95.5
68376;BME280;55318;52.068;5.188;2023-05-07T08:13:34;101745.0;;;17.79;95.2
68376;BME280;55318;52.068;5.188;2023-05-07T08:15:11;101749.0;;;17.84;95.17
68376;BME280;55318;52.068;5.188;2023-05-07T08:16:47;101748.0;;;17.7;94.61
68376;BME280;55318;52.068;5.188;2023-05-07T08:20:01;101746.0;;;17.78;95.31
68376;BME280;55318;52.068;5.188;2023-05-07T08:21:39;101748.0;;;17.73;96.54
68376;BME280;55318;52.068;5.188;2023-05-07T08:23:15;101752.0;;;17.64;97.65
68376;BME280;55318;52.068;5.188;2023-05-07T08:26:28;101750.0;;;17.7;98.45
68376;BME280;55318;52.068;5.188;2023-05-07T08:28:05;101748.0;;;17.87;98.77
68376;BME280;55318;52.068;5.188;2023-05-07T08:29:41;101748.0;;;17.81;97.64
68376;BME280;55318;52.068;5.188;2023-05-07T08:31:17;101748.0;;;17.71;97.58
68376;BME280;55318;52.068;5.188;2023-05-07T08:34:29;101752.0;;;17.7;98.75
68376;BME280;55318;52.068;5.188;2023-05-07T08:36:06;101752.0;;;17.86;97.7
68376;BME280;55318;52.068;5.188;2023-05-07T08:37:42;101755.0;;;17.66;99.27
68376;BME280;55318;52.068;5.188;2023-05-07T08:40:55;101756.0;;;17.78;99.42
68376;BME280;55318;52.068;5.188;2023-05-07T08:42:35;101761.0;;;17.7;99.42
68376;BME280;55318;52.068;5.188;2023-05-07T08:44:12;101761.0;;;17.8;97.26
68376;BME280;55318;52.068;5.188;2023-05-07T08:45:53;101765.0;;;17.75;98.07
68376;BME280;55318;52.068;5.188;2023-05-07T08:49:15;101767.0;;;17.82;96.63
68376;BME280;55318;52.068;5.188;2023-05-07T08:50:52;101766.0;;;17.86;97.72
68376;BME280;55318;52.068;5.188;2023-05-07T08:52:29;101767.0;;;18.02;96.88
68376;BME280;55318;52.068;5.188;2023-05-07T08:55:44;101771.0;;;18.18;97.53
68376;BME280;55318;52.068;5.188;2023-05-07T08:57:21;101766.0;;;18.2;97.38
68376;BME280;55318;52.068;5.188;2023-05-07T08:58:58;101766.0;;;18.12;98.86
68376;BME280;55318;52.068;5.188;2023-05-07T09:00:36;101765.0;;;18.2;98.34
68376;BME280;55318;52.068;5.188;2023-05-07T09:03:49;101772.0;;;18.2;98.89
68376;BME280;55318;52.068;5.188;2023-05-07T09:05:28;101769.0;;;18.25;97.38
68376;BME280;55318;52.068;5.188;2023-05-07T09:07:04;101771.0;;;18.39;97.08
68376;BME280;55318;52.068;5.188;2023-05-07T09:10:25;101771.0;;;18.5;96.08
68376;BME280;55318;52.068;5.188;2023-05-07T09:12:02;101772.0;;;18.66;96.35
68376;BME280;55318;52.068;5.188;2023-05-07T09:13:39;101772.0;;;18.66;94.68
68376;BME280;55318;52.068;5.188;2023-05-07T09:15:15;101771.0;;;18.68;94.74
68376;BME280;55318;52.068;5.188;2023-05-07T09:18:28;101773.0;;;18.87;95.88
68376;BME280;55318;52.068;5.188;2023-05-07T09:20:06;101771.0;;;19.02;94.66
68376;BME280;55318;52.068;5.188;2023-05-07T09:21:42;101772.0;;;19.05;94.0
68376;BME280;55318;52.068;5.188;2023-05-07T09:24:57;101768.0;;;19.11;91.9
68376;BME280;55318;52.068;5.188;2023-05-07T09:26:33;101772.0;;;19.21;93.25
68376;BME280;55318;52.068;5.188;2023-05-07T09:28:10;101771.0;;;19.29;93.64
68376;BME280;55318;52.068;5.188;2023-05-07T09:29:46;101772.0;;;19.28;92.44
68376;BME280;55318;52.068;5.188;2023-05-07T09:33:01;101772.0;;;19.37;92.14
68376;BME280;55318;52.068;5.188;2023-05-07T09:34:41;101773.0;;;19.25;92.15
68376;BME280;55318;52.068;5.188;2023-05-07T09:36:18;101768.0;;;19.23;91.73
68376;BME280;55318;52.068;5.188;2023-05-07T09:39:38;101770.0;;;19.41;91.94
68376;BME280;55318;52.068;5.188;2023-05-07T09:41:19;101773.0;;;19.47;90.28
68376;BME280;55318;52.068;5.188;2023-05-07T09:42:55;101775.0;;;19.47;91.15
68376;BME280;55318;52.068;5.188;2023-05-07T09:44:33;101773.0;;;19.34;89.59
68376;BME280;55318;52.068;5.188;2023-05-07T09:47:54;101777.0;;;19.41;89.1
68376;BME280;55318;52.068;5.188;2023-05-07T09:49:35;101780.0;;;19.66;86.96
68376;BME280;55318;52.068;5.188;2023-05-07T09:51:17;101783.0;;;19.95;89.08
68376;BME280;55318;52.068;5.188;2023-05-07T09:53:05;101780.0;;;19.88;87.08
68376;BME280;55318;52.068;5.188;2023-05-07T09:56:23;101780.0;;;20.02;84.9
68376;BME280;55318;52.068;5.188;2023-05-07T09:58:01;101783.0;;;20.23;85.67
68376;BME280;55318;52.068;5.188;2023-05-07T09:59:42;101788.0;;;20.31;84.72
68376;BME280;55318;52.068;5.188;2023-05-07T10:01:19;101787.0;;;20.45;85.79
68376;BME280;55318;52.068;5.188;2023-05-07T10:04:35;101792.0;;;20.5;81.44
68376;BME280;55318;52.068;5.188;2023-05-07T10:06:13;101790.0;;;20.29;81.69
68376;BME280;55318;52.068;5.188;2023-05-07T10:07:50;101789.0;;;20.27;82.99
68376;BME280;55318;52.068;5.188;2023-05-07T10:11:06;101788.0;;;20.5;83.86
68376;BME280;55318;52.068;5.188;2023-05-07T10:12:42;101789.0;;;20.18;79.87
68376;BME280;55318;52.068;5.188;2023-05-07T10:14:20;101788.0;;;20.25;82.1
68376;BME280;55318;52.068;5.188;2023-05-07T10:15:57;101787.0;;;20.52;83.89
68376;BME280;55318;52.068;5.188;2023-05-07T10:19:12;101788.0;;;20.64;81.67
68376;BME280;55318;52.068;5.188;2023-05-07T10:20:49;101787.0;;;20.62;79.25
68376;BME280;55318;52.068;5.188;2023-05-07T10:22:28;101792.0;;;20.67;77.53
68376;BME280;55318;52.068;5.188;2023-05-07T10:24:19;101790.0;;;20.62;79.23
68376;BME280;55318;52.068;5.188;2023-05-07T10:27:33;101792.0;;;20.52;77.17
68376;BME280;55318;52.068;5.188;2023-05-07T10:29:15;101791.0;;;20.7;78.39
68376;BME280;55318;52.068;5.188;2023-05-07T10:31:10;101792.0;;;20.74;76.44
68376;BME280;55318;52.068;5.188;2023-05-07T10:33:03;101791.0;;;20.86;76.5
68376;BME280;55318;52.068;5.188;2023-05-07T10:34:43;101787.0;;;21.03;76.92
68376;BME280;55318;52.068;5.188;2023-05-07T10:37:59;101790.0;;;21.23;75.24
68376;BME280;55318;52.068;5.188;2023-05-07T10:39:35;101788.0;;;20.98;75.64
68376;BME280;55318;52.068;5.188;2023-05-07T10:44:30;101793.0;;;21.1;76.64
68376;BME280;55318;52.068;5.188;2023-05-07T10:46:10;101797.0;;;21.29;77.64
68376;BME280;55318;52.068;5.188;2023-05-07T10:48:06;101798.0;;;21.29;76.5
68376;BME280;55318;52.068;5.188;2023-05-07T10:51:18;101796.0;;;21.49;75.52
68376;BME280;55318;52.068;5.188;2023-05-07T10:53:26;101791.0;;;21.59;72.91
68376;BME280;55318;52.068;5.188;2023-05-07T10:55:33;101792.0;;;21.77;73.59
68376;BME280;55318;52.068;5.188;2023-05-07T10:57:41;101793.0;;;21.74;73.69
68376;BME280;55318;52.068;5.188;2023-05-07T10:59:31;101792.0;;;21.86;71.94
68376;BME280;55318;52.068;5.188;2023-05-07T11:01:11;101789.0;;;21.68;73.66
68376;BME280;55318;52.068;5.188;2023-05-07T11:03:18;101791.0;;;21.81;73.16
68376;BME280;55318;52.068;5.188;2023-05-07T11:05:19;101791.0;;;21.71;72.11
68376;BME280;55318;52.068;5.188;2023-05-07T11:07:24;101795.0;;;21.79;73.3
68376;BME280;55318;52.068;5.188;2023-05-07T11:09:06;101801.0;;;21.89;72.77
68376;BME280;55318;52.068;5.188;2023-05-07T11:10:57;101793.0;;;22.07;72.49
68376;BME280;55318;52.068;5.188;2023-05-07T11:13:07;101798.0;;;21.96;72.58